createdAt,value
2023-05-24T00:02:27.075Z,1.75
2023-05-24T00:04:54.357Z,1.90
2023-05-24T00:07:21.681Z,1.70
2023-05-24T00:09:49.089Z,1.80
2023-05-24T00:12:16.768Z,1.60
2023-05-24T00:14:43.731Z,1.60
2023-05-24T00:17:10.763Z,1.50
2023-05-24T00:19:38.483Z,1.65
2023-05-24T00:22:05.824Z,1.52
2023-05-24T00:24:32.903Z,2.42
2023-05-24T00:26:59.868Z,1.83
2023-05-24T00:29:26.860Z,1.80
2023-05-24T00:31:53.886Z,1.70
2023-05-24T00:34:21.032Z,1.85
2023-05-24T00:36:48.053Z,1.90
2023-05-24T00:39:15.117Z,2.00
2023-05-24T00:41:42.127Z,2.00
2023-05-24T00:44:11.090Z,1.80
2023-05-24T00:46:38.974Z,2.00
2023-05-24T00:49:06.192Z,2.30
2023-05-24T00:51:34.174Z,1.80
2023-05-24T00:54:01.324Z,1.67
2023-05-24T00:56:28.813Z,1.85
2023-05-24T00:58:56.497Z,2.28
2023-05-24T01:01:31.161Z,2.10
2023-05-24T01:04:00.597Z,2.60
2023-05-24T01:06:29.223Z,2.30
2023-05-24T01:09:10.242Z,2.83
2023-05-24T01:12:00.933Z,3.15
2023-05-24T01:14:53.654Z,2.80
2023-05-24T01:17:46.651Z,3.00
2023-05-24T01:20:15.162Z,3.08
2023-05-24T01:22:51.154Z,2.65
2023-05-24T01:25:42.014Z,2.83
2023-05-24T01:28:10.877Z,3.65
2023-05-24T01:30:42.629Z,3.00
2023-05-24T01:33:10.001Z,2.50
2023-05-24T01:35:40.685Z,2.63
2023-05-24T01:38:07.912Z,2.00
2023-05-24T01:40:36.022Z,2.33
2023-05-24T01:43:41.305Z,2.40
2023-05-24T01:46:36.602Z,2.33
2023-05-24T01:49:29.706Z,2.22
2023-05-24T01:52:05.718Z,2.88
2023-05-24T01:54:38.262Z,2.53
2023-05-24T01:57:09.396Z,2.85
2023-05-24T01:59:38.306Z,2.30
2023-05-24T02:02:05.911Z,3.58
2023-05-24T02:04:33.474Z,2.30
2023-05-24T02:07:00.589Z,2.67
2023-05-24T02:09:27.577Z,2.75
2023-05-24T02:11:54.595Z,3.03
2023-05-24T02:14:21.597Z,2.33
2023-05-24T02:16:50.890Z,2.80
2023-05-24T02:19:18.175Z,2.78
2023-05-24T02:21:45.189Z,3.10
2023-05-24T02:24:12.664Z,2.67
2023-05-24T02:26:40.031Z,3.08
2023-05-24T02:29:07.197Z,3.40
2023-05-24T02:31:34.234Z,3.85
2023-05-24T02:34:01.343Z,3.63
2023-05-24T02:36:28.598Z,4.82
2023-05-24T02:38:57.000Z,4.38
2023-05-24T02:41:24.487Z,3.40
2023-05-24T02:43:51.505Z,3.03
2023-05-24T02:46:18.538Z,2.38
2023-05-24T02:48:46.138Z,2.45
2023-05-24T02:51:13.090Z,3.13
2023-05-24T02:53:40.083Z,2.42
2023-05-24T02:56:08.038Z,2.95
2023-05-24T02:58:35.264Z,3.15
2023-05-24T03:01:02.274Z,2.30
2023-05-24T03:03:29.370Z,3.85
2023-05-24T03:05:56.548Z,2.83
2023-05-24T03:08:24.054Z,3.00
2023-05-24T03:10:50.997Z,3.03
2023-05-24T03:13:17.922Z,3.20
2023-05-24T03:15:45.414Z,5.38
2023-05-24T03:18:12.678Z,3.15
2023-05-24T03:20:39.731Z,2.80
2023-05-24T03:23:06.719Z,3.70
2023-05-24T03:25:33.867Z,3.15
2023-05-24T03:28:02.721Z,3.20
2023-05-24T03:30:30.140Z,2.80
2023-05-24T03:32:57.258Z,3.20
2023-05-24T03:35:24.982Z,2.85
2023-05-24T03:37:51.984Z,3.10
2023-05-24T03:40:19.263Z,3.30
2023-05-24T03:42:46.455Z,2.72
2023-05-24T03:45:16.073Z,3.13
2023-05-24T03:47:46.542Z,3.40
2023-05-24T03:50:14.632Z,3.35
2023-05-24T03:52:43.171Z,3.10
2023-05-24T03:55:10.232Z,3.47
2023-05-24T03:57:37.177Z,3.58
2023-05-24T04:00:07.263Z,2.88
2023-05-24T04:02:34.328Z,2.78
2023-05-24T04:05:01.935Z,4.20
2023-05-24T04:07:29.107Z,3.00
2023-05-24T04:09:56.088Z,2.78
2023-05-24T04:12:23.276Z,2.58
2023-05-24T04:14:51.958Z,3.47
2023-05-24T04:17:18.995Z,2.85
2023-05-24T04:19:47.226Z,2.58
2023-05-24T04:22:14.152Z,6.05
2023-05-24T04:24:41.394Z,3.40
2023-05-24T04:27:10.215Z,3.22
2023-05-24T04:29:40.186Z,3.13
2023-05-24T04:32:07.608Z,3.08
2023-05-24T04:34:35.842Z,3.50
2023-05-24T04:37:03.728Z,3.63
2023-05-24T04:39:31.414Z,3.50
2023-05-24T04:41:59.262Z,3.22
2023-05-24T04:44:26.331Z,3.63
2023-05-24T04:46:54.487Z,4.38
2023-05-24T04:49:22.790Z,3.42
2023-05-24T04:51:49.829Z,3.50
2023-05-24T04:54:18.534Z,3.38
2023-05-24T04:56:46.011Z,3.90
2023-05-24T04:59:13.059Z,4.43
2023-05-24T05:01:40.139Z,3.90
2023-05-24T05:04:08.089Z,3.60
2023-05-24T05:06:38.810Z,3.55
2023-05-24T05:09:09.692Z,4.13
2023-05-24T05:11:37.431Z,3.63
2023-05-24T05:14:04.787Z,3.50
2023-05-24T05:16:32.068Z,3.90
2023-05-24T05:18:59.290Z,4.03
2023-05-24T05:21:26.240Z,4.20
2023-05-24T05:23:54.868Z,4.60
2023-05-24T05:26:22.417Z,3.45
2023-05-24T05:28:49.394Z,4.00
2023-05-24T05:31:16.454Z,3.80
2023-05-24T05:33:43.421Z,4.35
2023-05-24T05:36:10.600Z,3.65
2023-05-24T05:38:37.870Z,3.42
2023-05-24T05:41:04.862Z,3.22
2023-05-24T05:43:32.071Z,4.72
2023-05-24T05:46:00.799Z,4.45
2023-05-24T05:48:28.026Z,3.45
2023-05-24T05:50:54.999Z,3.80
2023-05-24T05:53:21.994Z,4.05
2023-05-24T05:55:49.008Z,3.90
2023-05-24T05:58:16.374Z,4.43
2023-05-24T06:00:43.503Z,4.15
2023-05-24T06:03:11.063Z,4.32
2023-05-24T06:05:38.251Z,3.47
2023-05-24T06:08:05.503Z,3.20
2023-05-24T06:10:32.441Z,3.67
2023-05-24T06:13:01.890Z,3.17
2023-05-24T06:15:29.579Z,4.68
2023-05-24T06:17:56.597Z,3.00
2023-05-24T06:20:23.789Z,3.50
2023-05-24T06:22:50.935Z,3.50
2023-05-24T06:25:21.100Z,3.28
2023-05-24T06:27:48.140Z,5.88
2023-05-24T06:30:15.448Z,3.72
2023-05-24T06:32:42.467Z,4.43
2023-05-24T06:35:10.164Z,4.07
2023-05-24T06:37:38.612Z,3.88
2023-05-24T06:40:08.884Z,3.15
2023-05-24T06:42:37.414Z,3.90
2023-05-24T06:45:04.681Z,3.15
2023-05-24T06:47:32.163Z,3.88
2023-05-24T06:49:59.180Z,4.57
2023-05-24T06:52:26.204Z,3.30
2023-05-24T06:54:53.660Z,4.13
2023-05-24T06:57:20.873Z,3.72
2023-05-24T06:59:48.101Z,3.40
2023-05-24T07:02:15.366Z,3.60
2023-05-24T07:04:42.510Z,3.25
2023-05-24T07:07:12.848Z,3.20
2023-05-24T07:09:41.933Z,2.83
2023-05-24T07:12:09.419Z,3.72
2023-05-24T07:14:36.968Z,3.60
2023-05-24T07:17:04.825Z,3.03
2023-05-24T07:19:33.872Z,3.28
2023-05-24T07:22:00.862Z,2.58
2023-05-24T07:24:27.999Z,3.53
2023-05-24T07:26:57.030Z,3.17
2023-05-24T07:29:24.589Z,2.58
2023-05-24T07:31:52.203Z,2.60
2023-05-24T07:34:21.780Z,2.88
2023-05-24T07:36:49.629Z,2.78
2023-05-24T07:39:16.891Z,3.00
2023-05-24T07:41:44.050Z,2.80
2023-05-24T07:44:12.262Z,3.03
2023-05-24T07:46:39.704Z,3.50
2023-05-24T07:49:07.270Z,2.60
2023-05-24T07:51:34.387Z,2.63
2023-05-24T07:54:01.660Z,2.58
2023-05-24T07:56:28.625Z,3.00
2023-05-24T07:59:00.783Z,2.47
2023-05-24T08:01:29.164Z,2.65
2023-05-24T08:03:56.669Z,3.00
2023-05-24T08:06:24.361Z,2.15
2023-05-24T08:08:51.335Z,2.55
2023-05-24T08:11:18.287Z,2.22
2023-05-24T08:13:45.671Z,2.05
2023-05-24T08:16:12.874Z,1.85
2023-05-24T08:18:40.391Z,2.05
2023-05-24T08:21:09.050Z,1.73
2023-05-24T08:23:36.452Z,1.73
2023-05-24T08:26:03.484Z,1.83
2023-05-24T08:28:30.597Z,2.03
2023-05-24T08:30:58.798Z,2.03
2023-05-24T08:33:26.106Z,1.67
2023-05-24T08:35:53.333Z,1.92
2023-05-24T08:38:20.293Z,1.60
2023-05-24T08:40:48.313Z,1.48
2023-05-24T08:43:15.683Z,1.45
2023-05-24T08:45:43.512Z,1.60
2023-05-24T08:48:11.180Z,1.70
2023-05-24T08:50:38.432Z,1.02
2023-05-24T08:53:07.397Z,1.40
2023-05-24T08:55:35.359Z,1.25
2023-05-24T08:58:02.404Z,1.40
2023-05-24T09:00:29.568Z,1.48
2023-05-24T09:02:58.985Z,1.40
2023-05-24T09:05:26.490Z,1.00
2023-05-24T09:07:55.998Z,1.17
2023-05-24T09:10:24.095Z,1.02
2023-05-24T09:12:58.555Z,1.00
2023-05-24T09:15:26.212Z,1.30
2023-05-24T09:17:53.789Z,1.60
2023-05-24T09:20:22.140Z,1.63
2023-05-24T09:22:52.292Z,1.67
2023-05-24T09:25:23.613Z,1.33
2023-05-24T09:27:52.914Z,1.30
2023-05-24T09:30:21.955Z,1.08
2023-05-24T09:33:00.912Z,1.20
2023-05-24T09:35:28.769Z,0.90
2023-05-24T09:38:02.277Z,0.80
2023-05-24T09:40:30.289Z,1.13
2023-05-24T09:43:09.239Z,1.15
2023-05-24T09:45:47.084Z,0.90
2023-05-24T09:48:16.690Z,0.85
2023-05-24T09:50:47.578Z,1.05
2023-05-24T09:53:19.065Z,1.00
2023-05-24T09:55:46.425Z,1.38
2023-05-24T09:58:13.979Z,0.77
2023-05-24T10:06:27.979Z,0.60
2023-05-24T10:14:27.111Z,1.17
2023-05-24T10:16:54.462Z,0.95
2023-05-24T10:19:22.023Z,0.88
2023-05-24T10:21:49.977Z,0.93
2023-05-24T10:24:22.247Z,0.90
2023-05-24T10:26:50.801Z,0.80
2023-05-24T10:29:42.139Z,1.08
2023-05-24T10:32:09.844Z,1.23
2023-05-24T10:56:13.837Z,0.68
2023-05-24T10:58:58.044Z,0.80
2023-05-24T11:01:33.942Z,0.80
2023-05-24T11:04:12.948Z,0.80
2023-05-24T11:06:49.840Z,1.00
2023-05-24T11:09:22.591Z,0.80
2023-05-24T11:12:00.458Z,0.98
2023-05-24T11:14:29.352Z,0.77
2023-05-24T11:17:00.441Z,0.80
2023-05-24T11:19:39.369Z,0.80
2023-05-24T11:22:09.809Z,0.50
2023-05-24T11:24:37.607Z,0.55
2023-05-24T11:27:06.252Z,0.60
2023-05-24T11:29:34.881Z,0.68
2023-05-24T11:32:08.133Z,0.70
2023-05-24T11:34:35.728Z,0.80
2023-05-24T11:37:03.515Z,0.80
2023-05-24T11:39:35.839Z,0.95
2023-05-24T11:42:07.132Z,0.60
2023-05-24T11:44:38.255Z,0.77
2023-05-24T11:47:07.723Z,0.70
2023-05-24T11:49:34.974Z,0.80
2023-05-24T11:52:02.869Z,0.75
2023-05-24T11:54:32.865Z,0.70
2023-05-24T11:57:00.211Z,0.70
2023-05-24T11:59:29.340Z,0.70
2023-05-24T12:02:00.768Z,0.52
2023-05-24T12:04:29.615Z,0.70
2023-05-24T12:06:57.098Z,0.70
2023-05-24T12:09:24.906Z,0.63
2023-05-24T12:11:53.349Z,0.82
2023-05-24T12:14:25.507Z,0.70
2023-05-24T12:16:58.548Z,0.63
2023-05-24T12:19:33.524Z,0.57
2023-05-24T12:22:05.398Z,0.60
2023-05-24T12:24:32.954Z,0.60
2023-05-24T12:27:08.110Z,0.68
2023-05-24T12:29:37.018Z,0.73
2023-05-24T12:32:04.743Z,0.70
2023-05-24T12:34:32.611Z,0.80
2023-05-24T12:37:00.342Z,0.70
2023-05-24T12:39:32.384Z,0.80
2023-05-24T12:42:01.930Z,0.60
2023-05-24T12:44:36.997Z,0.80
2023-05-24T12:47:08.868Z,0.60
2023-05-24T12:49:36.480Z,0.70
2023-05-24T12:52:03.798Z,0.68
2023-05-24T12:54:31.324Z,0.80
2023-05-24T12:57:03.455Z,0.60
2023-05-24T12:59:31.061Z,0.77
2023-05-24T13:01:58.166Z,1.33
2023-05-24T13:04:28.403Z,0.70
2023-05-24T13:06:55.913Z,0.60
2023-05-24T13:09:24.090Z,0.55
2023-05-24T13:11:52.751Z,0.68
2023-05-24T13:14:21.563Z,0.60
2023-05-24T13:16:49.588Z,0.60
2023-05-24T13:19:17.473Z,0.50
2023-05-24T13:21:45.074Z,0.60
2023-05-24T13:24:14.982Z,0.60
2023-05-24T13:26:42.129Z,0.60
2023-05-24T13:31:41.241Z,0.70
2023-05-24T13:34:11.194Z,0.80
2023-05-24T13:36:38.500Z,0.50
2023-05-24T13:41:38.930Z,0.50
2023-05-24T13:44:07.412Z,0.60
2023-05-24T13:46:34.662Z,0.60
2023-05-24T13:49:02.326Z,0.63
2023-05-24T13:51:29.580Z,0.70
2023-05-24T13:53:56.899Z,0.75
2023-05-24T13:56:25.152Z,0.90
2023-05-24T13:58:53.736Z,1.10
2023-05-24T14:01:20.989Z,0.90
2023-05-24T14:03:48.155Z,0.95
2023-05-24T14:06:15.353Z,1.13
2023-05-24T14:08:42.717Z,1.00
2023-05-24T14:11:10.988Z,1.00
2023-05-24T14:16:09.169Z,0.70
2023-05-24T14:18:36.607Z,0.80
2023-05-24T14:21:03.967Z,0.98
2023-05-24T14:23:33.113Z,0.98
2023-05-24T14:26:00.568Z,1.10
2023-05-24T14:28:27.919Z,0.90
2023-05-24T14:30:54.848Z,1.02
2023-05-24T14:33:21.822Z,1.30
2023-05-24T14:35:50.389Z,1.02
2023-05-24T14:38:17.861Z,1.25
2023-05-24T14:40:47.581Z,1.30
2023-05-24T14:43:14.834Z,1.20
2023-05-24T14:45:42.758Z,1.05
2023-05-24T14:48:11.880Z,0.93
2023-05-24T14:50:40.686Z,1.23
2023-05-24T14:53:12.155Z,1.20
2023-05-24T14:55:44.272Z,1.30
2023-05-24T14:58:12.293Z,1.35
2023-05-24T15:00:40.473Z,1.88
2023-05-24T15:03:13.124Z,1.40
2023-05-24T15:05:41.761Z,1.40
2023-05-24T15:08:10.976Z,1.42
2023-05-24T15:10:39.385Z,1.90
2023-05-24T15:13:06.799Z,2.42
2023-05-24T15:15:33.864Z,2.15
2023-05-24T15:18:00.979Z,2.17
2023-05-24T15:20:28.195Z,1.95
2023-05-24T15:22:55.275Z,1.92
2023-05-24T15:25:23.553Z,1.63
2023-05-24T15:27:50.532Z,1.40
2023-05-24T15:30:19.760Z,2.15
2023-05-24T15:32:47.679Z,1.95
2023-05-24T15:35:15.046Z,1.70
2023-05-24T15:37:43.023Z,2.10
2023-05-24T15:40:10.956Z,2.13
2023-05-24T15:42:38.597Z,1.95
2023-05-24T15:45:07.412Z,2.00
2023-05-24T15:47:40.017Z,1.65
2023-05-24T15:50:08.672Z,1.63
2023-05-24T15:52:36.219Z,1.95
2023-05-24T15:55:03.911Z,1.80
2023-05-24T15:57:31.456Z,1.92
2023-05-24T15:59:58.462Z,1.73
2023-05-24T16:02:25.852Z,2.30
2023-05-24T16:04:53.213Z,2.10
2023-05-24T16:07:20.738Z,2.00
2023-05-24T16:09:50.223Z,2.17
2023-05-24T16:12:20.583Z,2.00
2023-05-24T16:14:47.582Z,2.03
2023-05-24T16:17:18.149Z,2.50
2023-05-24T16:19:49.765Z,2.30
2023-05-24T16:22:17.073Z,2.08
2023-05-24T16:24:44.788Z,2.30
2023-05-24T16:27:11.998Z,3.03
2023-05-24T16:29:39.590Z,2.58
2023-05-24T16:32:07.756Z,2.85
2023-05-24T16:34:51.956Z,3.00
2023-05-24T16:37:22.055Z,2.65
2023-05-24T16:39:49.041Z,3.72
2023-05-24T16:42:16.116Z,3.70
2023-05-24T16:44:43.404Z,3.72
2023-05-24T16:47:10.941Z,3.92
2023-05-24T16:49:38.113Z,4.28
2023-05-24T16:52:05.414Z,3.80
2023-05-24T16:54:32.605Z,3.88
2023-05-24T16:56:59.702Z,2.92
2023-05-24T16:59:26.848Z,3.65
2023-05-24T17:01:54.200Z,3.30
2023-05-24T17:04:21.349Z,3.47
2023-05-24T17:06:48.494Z,3.63
2023-05-24T17:09:16.203Z,3.25
2023-05-24T17:11:43.211Z,3.65
2023-05-24T17:14:10.229Z,3.38
2023-05-24T17:16:37.446Z,2.75
2023-05-24T17:19:04.578Z,3.85
2023-05-24T17:21:31.599Z,3.22
2023-05-24T17:24:00.629Z,3.10
2023-05-24T17:26:27.932Z,3.38
2023-05-24T17:28:55.073Z,3.47
2023-05-24T17:31:22.732Z,3.72
2023-05-24T17:33:49.705Z,3.85
2023-05-24T17:36:16.749Z,3.15
2023-05-24T17:38:44.003Z,3.85
2023-05-24T17:41:11.078Z,3.15
2023-05-24T17:43:40.229Z,2.83
2023-05-24T17:46:07.783Z,3.28
2023-05-24T17:48:39.604Z,4.05
2023-05-24T17:51:10.879Z,4.90
2023-05-24T17:53:38.544Z,4.15
2023-05-24T17:56:06.240Z,3.60
2023-05-24T17:58:36.837Z,3.90
2023-05-24T18:01:05.535Z,3.17
2023-05-24T18:03:38.420Z,3.47
2023-05-24T18:06:07.415Z,3.17
2023-05-24T18:08:38.031Z,3.88
2023-05-24T18:11:08.798Z,3.25
2023-05-24T18:13:37.604Z,3.28
2023-05-24T18:16:04.910Z,3.35
2023-05-24T18:18:32.968Z,3.90
2023-05-24T18:21:00.055Z,3.25
2023-05-24T18:23:27.089Z,3.38
2023-05-24T18:26:00.372Z,3.70
2023-05-24T18:28:28.596Z,2.95
2023-05-24T18:30:55.701Z,3.22
2023-05-24T18:33:22.994Z,3.47
2023-05-24T18:35:50.600Z,4.00
2023-05-24T18:38:17.809Z,3.58
2023-05-24T18:40:44.797Z,4.82
2023-05-24T18:43:11.796Z,4.32
2023-05-24T18:45:38.888Z,4.70
2023-05-24T18:48:06.445Z,4.57
2023-05-24T18:50:33.726Z,3.60
2023-05-24T18:53:00.750Z,3.55
2023-05-24T18:55:28.663Z,3.42
2023-05-24T18:57:56.124Z,4.43
2023-05-24T19:00:24.621Z,3.78
2023-05-24T19:02:52.105Z,3.92
2023-05-24T19:05:20.172Z,3.67
2023-05-24T19:07:47.453Z,3.08
2023-05-24T19:10:14.447Z,4.10
2023-05-24T19:12:41.691Z,3.65
2023-05-24T19:15:09.133Z,2.75
2023-05-24T19:17:36.295Z,3.28
2023-05-24T19:20:04.052Z,3.78
2023-05-24T19:22:31.041Z,3.15
2023-05-24T19:24:58.218Z,4.45
2023-05-24T19:27:25.239Z,3.40
2023-05-24T19:29:52.290Z,2.67
2023-05-24T19:32:20.592Z,3.90
2023-05-24T19:34:47.698Z,2.20
2023-05-24T19:37:15.868Z,3.28
2023-05-24T19:39:42.952Z,3.80
2023-05-24T19:42:11.084Z,3.83
2023-05-24T19:44:38.053Z,3.35
2023-05-24T19:47:05.659Z,2.92
2023-05-24T19:49:32.618Z,3.20
2023-05-24T19:51:59.583Z,2.67
2023-05-24T19:54:26.793Z,3.45
2023-05-24T19:56:55.961Z,3.22
2023-05-24T19:59:22.913Z,3.05
2023-05-24T20:01:49.988Z,2.70
2023-05-24T20:04:17.051Z,2.83
2023-05-24T20:06:44.162Z,3.83
2023-05-24T20:09:11.570Z,3.53
2023-05-24T20:11:38.535Z,3.42
2023-05-24T20:14:05.564Z,3.60
2023-05-24T20:16:32.686Z,4.00
2023-05-24T20:18:59.680Z,3.47
2023-05-24T20:21:26.673Z,4.45
2023-05-24T20:23:58.168Z,3.55
2023-05-24T20:26:26.192Z,3.85
2023-05-24T20:28:53.324Z,3.40
2023-05-24T20:31:20.448Z,4.60
2023-05-24T20:33:49.096Z,3.72
2023-05-24T20:36:16.354Z,3.45
2023-05-24T20:38:43.356Z,3.45
2023-05-24T20:41:10.310Z,3.17
2023-05-24T20:43:37.523Z,3.95
2023-05-24T20:46:04.576Z,3.55
2023-05-24T20:48:31.584Z,4.20
2023-05-24T20:50:58.652Z,3.42
2023-05-24T20:53:26.071Z,4.35
2023-05-24T20:55:53.667Z,5.13
2023-05-24T20:58:20.866Z,4.40
2023-05-24T21:00:47.866Z,4.38
2023-05-24T21:03:14.988Z,4.28
2023-05-24T21:05:42.467Z,4.30
2023-05-24T21:08:09.554Z,3.97
2023-05-24T21:10:38.173Z,4.25
2023-05-24T21:13:05.706Z,4.10
2023-05-24T21:15:32.731Z,4.18
2023-05-24T21:18:00.157Z,5.47
2023-05-24T21:20:27.520Z,4.43
2023-05-24T21:22:54.635Z,4.60
2023-05-24T21:25:21.890Z,4.95
2023-05-24T21:27:49.139Z,4.65
2023-05-24T21:30:16.396Z,4.63
2023-05-24T21:32:43.578Z,4.30
2023-05-24T21:35:10.712Z,3.70
2023-05-24T21:37:37.921Z,3.80
2023-05-24T21:40:06.071Z,2.97
2023-05-24T21:42:33.228Z,4.35
2023-05-24T21:45:00.288Z,4.53
2023-05-24T21:47:27.323Z,4.18
2023-05-24T21:49:55.245Z,4.18
2023-05-24T21:52:23.330Z,4.22
2023-05-24T21:54:50.513Z,3.67
2023-05-24T21:57:17.498Z,5.50
2023-05-24T21:59:44.495Z,3.35
2023-05-24T22:02:11.665Z,3.45
2023-05-24T22:04:38.875Z,3.35
2023-05-24T22:07:06.694Z,4.95
2023-05-24T22:09:34.055Z,4.30
2023-05-24T22:12:01.988Z,4.65
2023-05-24T22:14:29.316Z,3.97
2023-05-24T22:16:56.498Z,5.55
2023-05-24T22:19:38.834Z,3.78
2023-05-24T22:22:08.410Z,4.10
2023-05-24T22:24:35.827Z,3.72
2023-05-24T22:27:03.287Z,3.50
2023-05-24T22:29:30.441Z,5.22
2023-05-24T22:31:57.748Z,4.65
2023-05-24T22:34:29.148Z,4.70
2023-05-24T22:36:57.761Z,5.90
2023-05-24T22:39:24.980Z,4.88
2023-05-24T22:41:52.790Z,4.88
2023-05-24T22:44:20.304Z,4.13
2023-05-24T22:46:53.719Z,4.80
2023-05-24T22:49:20.972Z,5.65
2023-05-24T22:51:50.445Z,5.72
2023-05-24T22:54:18.350Z,5.57
2023-05-24T22:56:46.750Z,5.43
2023-05-24T22:59:13.760Z,4.75
2023-05-24T23:01:40.945Z,5.57
2023-05-24T23:04:20.671Z,5.60
2023-05-24T23:06:52.943Z,4.85
2023-05-24T23:09:29.401Z,5.50
2023-05-24T23:11:58.585Z,4.90
2023-05-24T23:14:25.989Z,4.53
2023-05-24T23:16:53.125Z,5.50
2023-05-24T23:19:22.187Z,5.10
2023-05-24T23:21:52.393Z,4.70
2023-05-24T23:24:19.780Z,4.38
2023-05-24T23:26:46.795Z,4.78
2023-05-24T23:29:13.955Z,3.88
2023-05-24T23:31:41.051Z,5.90
2023-05-24T23:34:08.167Z,4.60
2023-05-24T23:36:35.216Z,4.70
2023-05-24T23:39:02.222Z,5.72
2023-05-24T23:41:29.192Z,6.07
2023-05-24T23:43:56.197Z,4.68
2023-05-24T23:46:23.737Z,3.92
2023-05-24T23:48:50.886Z,4.78
2023-05-24T23:51:19.586Z,5.55
2023-05-24T23:53:46.614Z,6.20
2023-05-24T23:56:13.612Z,5.50
2023-05-24T23:58:42.052Z,5.20
